createdAt,value
2022-09-27T00:01:29.883Z,4.03
2022-09-27T00:03:58.727Z,6.00
2022-09-27T00:06:29.705Z,3.80
2022-09-27T00:08:57.914Z,3.75
2022-09-27T00:11:28.364Z,2.60
2022-09-27T00:13:56.309Z,4.55
2022-09-27T00:16:24.894Z,6.10
2022-09-27T00:18:52.714Z,5.50
2022-09-27T00:21:20.546Z,3.53
2022-09-27T00:23:49.560Z,5.13
2022-09-27T00:26:17.179Z,4.88
2022-09-27T00:28:45.059Z,4.63
2022-09-27T00:31:20.873Z,4.32
2022-09-27T00:33:49.783Z,3.13
2022-09-27T00:36:17.869Z,5.20
2022-09-27T00:38:45.868Z,5.03
2022-09-27T00:41:17.634Z,2.80
2022-09-27T00:43:48.077Z,4.53
2022-09-27T00:46:20.370Z,5.10
2022-09-27T00:48:48.492Z,2.92
2022-09-27T00:51:16.703Z,2.97
2022-09-27T00:53:46.951Z,3.30
2022-09-27T00:56:19.450Z,2.60
2022-09-27T00:58:49.981Z,2.60
2022-09-27T01:01:17.741Z,3.53
2022-09-27T01:03:50.295Z,2.08
2022-09-27T01:06:18.120Z,2.03
2022-09-27T01:08:46.097Z,1.40
2022-09-27T01:11:24.820Z,1.90
2022-09-27T01:14:02.971Z,1.27
2022-09-27T01:16:35.845Z,1.40
2022-09-27T01:19:10.843Z,1.85
2022-09-27T01:21:52.713Z,1.30
2022-09-27T01:24:49.583Z,0.90
2022-09-27T01:27:47.974Z,1.42
2022-09-27T01:30:22.724Z,1.57
2022-09-27T01:32:56.280Z,1.88
2022-09-27T01:35:29.981Z,1.23
2022-09-27T01:38:06.646Z,2.17
2022-09-27T01:40:38.664Z,3.35
2022-09-27T01:43:10.759Z,2.60
2022-09-27T01:45:44.562Z,2.50
2022-09-27T01:48:15.371Z,2.60
2022-09-27T01:50:47.086Z,4.60
2022-09-27T01:53:18.794Z,3.97
2022-09-27T01:55:49.732Z,2.67
2022-09-27T01:58:21.488Z,4.57
2022-09-27T02:00:52.577Z,3.10
2022-09-27T02:03:22.076Z,3.93
2022-09-27T02:05:54.594Z,3.17
2022-09-27T02:08:26.435Z,3.75
2022-09-27T02:10:55.730Z,3.83
2022-09-27T02:13:24.782Z,3.58
2022-09-27T02:15:59.355Z,2.38
2022-09-27T02:18:31.099Z,2.27
2022-09-27T02:21:00.143Z,3.00
2022-09-27T02:23:33.153Z,2.45
2022-09-27T02:26:05.042Z,2.95
2022-09-27T02:28:36.552Z,2.95
2022-09-27T02:31:05.859Z,2.58
2022-09-27T02:33:36.859Z,5.28
2022-09-27T02:36:04.517Z,3.55
2022-09-27T02:38:32.631Z,3.63
2022-09-27T02:41:00.397Z,2.72
2022-09-27T02:43:30.447Z,2.30
2022-09-27T02:46:10.229Z,2.60
2022-09-27T02:48:42.360Z,3.63
2022-09-27T02:51:28.448Z,2.38
2022-09-27T02:54:06.737Z,3.83
2022-09-27T02:56:37.940Z,3.78
2022-09-27T02:59:10.035Z,4.70
2022-09-27T03:01:44.962Z,2.17
2022-09-27T03:04:19.085Z,4.07
2022-09-27T03:06:47.759Z,3.13
2022-09-27T03:09:19.669Z,1.92
2022-09-27T03:11:47.338Z,2.22
2022-09-27T03:14:15.088Z,3.20
2022-09-27T03:16:44.195Z,2.72
2022-09-27T03:19:12.053Z,1.45
2022-09-27T03:21:39.953Z,2.20
2022-09-27T03:24:07.935Z,2.22
2022-09-27T03:26:35.706Z,1.77
2022-09-27T03:29:03.371Z,0.82
2022-09-27T03:31:31.530Z,2.00
2022-09-27T03:34:00.605Z,1.30
2022-09-27T03:36:28.828Z,2.67
2022-09-27T03:38:56.474Z,3.85
2022-09-27T03:41:24.130Z,1.45
2022-09-27T03:43:51.977Z,1.45
2022-09-27T03:46:19.699Z,1.60
2022-09-27T03:48:47.379Z,1.77
2022-09-27T03:51:16.454Z,2.30
2022-09-27T03:53:44.069Z,2.90
2022-09-27T03:56:11.709Z,1.55
2022-09-27T03:58:39.341Z,1.70
2022-09-27T04:01:06.982Z,2.08
2022-09-27T04:03:36.079Z,2.00
2022-09-27T04:06:04.146Z,2.20
2022-09-27T04:08:33.151Z,4.03
2022-09-27T04:11:00.844Z,1.42
2022-09-27T04:13:28.456Z,1.13
2022-09-27T04:15:56.197Z,2.63
2022-09-27T04:18:23.919Z,2.75
2022-09-27T04:20:51.595Z,2.55
2022-09-27T04:23:20.644Z,1.03
2022-09-27T04:25:50.539Z,1.50
2022-09-27T04:28:18.218Z,2.28
2022-09-27T04:30:46.694Z,3.92
2022-09-27T04:33:14.864Z,1.42
2022-09-27T04:36:01.398Z,3.67
2022-09-27T04:38:29.071Z,2.78
2022-09-27T04:40:58.431Z,1.58
2022-09-27T04:43:26.628Z,2.40
2022-09-27T04:45:54.438Z,2.13
2022-09-27T04:48:22.080Z,4.43
2022-09-27T04:50:57.181Z,2.78
2022-09-27T04:53:25.099Z,4.03
2022-09-27T04:55:54.139Z,3.00
2022-09-27T04:58:23.397Z,2.97
2022-09-27T05:00:52.418Z,3.05
2022-09-27T05:03:20.222Z,3.20
2022-09-27T05:05:47.858Z,3.42
2022-09-27T05:08:15.522Z,2.88
2022-09-27T05:10:43.245Z,3.47
2022-09-27T05:13:10.877Z,3.72
2022-09-27T05:15:40.088Z,2.70
2022-09-27T05:18:08.130Z,3.35
2022-09-27T05:20:36.395Z,5.73
2022-09-27T05:23:04.687Z,3.08
2022-09-27T05:25:32.808Z,4.65
2022-09-27T05:28:00.585Z,4.18
2022-09-27T05:30:28.435Z,2.97
2022-09-27T05:32:57.543Z,4.90
2022-09-27T05:35:25.286Z,2.90
2022-09-27T05:37:54.034Z,3.15
2022-09-27T05:40:40.393Z,6.30
2022-09-27T05:43:09.442Z,9.75
2022-09-27T05:45:37.450Z,4.97
2022-09-27T05:48:06.725Z,4.77
2022-09-27T05:50:34.993Z,3.55
2022-09-27T05:53:02.691Z,4.53
2022-09-27T05:55:30.716Z,5.07
2022-09-27T05:57:59.674Z,4.18
2022-09-27T06:00:27.762Z,3.72
2022-09-27T06:02:57.201Z,6.72
2022-09-27T06:05:28.707Z,3.40
2022-09-27T06:08:00.399Z,4.15
2022-09-27T06:10:28.518Z,4.20
2022-09-27T06:13:00.871Z,5.27
2022-09-27T06:15:28.580Z,4.40
2022-09-27T06:17:56.245Z,3.75
2022-09-27T06:20:23.895Z,6.38
2022-09-27T06:22:54.127Z,5.60
2022-09-27T06:25:21.847Z,4.73
2022-09-27T06:27:49.483Z,4.25
2022-09-27T06:30:20.350Z,4.07
2022-09-27T06:32:48.366Z,4.18
2022-09-27T06:35:16.141Z,5.18
2022-09-27T06:37:43.789Z,5.80
2022-09-27T06:40:13.034Z,4.73
2022-09-27T06:42:40.844Z,3.70
2022-09-27T06:45:09.161Z,9.85
2022-09-27T06:47:36.953Z,5.53
2022-09-27T06:50:06.501Z,4.60
2022-09-27T06:52:35.057Z,5.22
2022-09-27T06:55:02.949Z,5.90
2022-09-27T06:57:49.282Z,5.85
2022-09-27T07:00:26.865Z,5.93
2022-09-27T07:03:00.851Z,5.63
2022-09-27T07:05:29.585Z,5.03
2022-09-27T07:07:57.862Z,5.38
2022-09-27T07:10:26.990Z,5.53
2022-09-27T07:12:56.573Z,6.22
2022-09-27T07:15:24.258Z,5.25
2022-09-27T07:17:57.977Z,3.80
2022-09-27T07:20:25.855Z,4.38
2022-09-27T07:22:54.032Z,5.68
2022-09-27T07:25:21.764Z,6.55
2022-09-27T07:27:49.616Z,5.40
2022-09-27T07:30:18.778Z,5.55
2022-09-27T07:32:46.403Z,5.20
2022-09-27T07:35:15.458Z,4.33
2022-09-27T07:37:43.457Z,4.60
2022-09-27T07:40:11.360Z,4.90
2022-09-27T07:42:39.260Z,6.32
2022-09-27T07:45:09.301Z,4.20
2022-09-27T07:47:39.107Z,4.35
2022-09-27T07:50:07.293Z,5.03
2022-09-27T07:52:40.621Z,6.35
2022-09-27T07:55:09.433Z,5.18
2022-09-27T07:57:37.510Z,5.20
2022-09-27T08:00:06.534Z,3.28
2022-09-27T08:02:34.284Z,3.60
2022-09-27T08:05:03.880Z,2.10
2022-09-27T08:07:32.936Z,4.90
2022-09-27T08:10:00.833Z,3.72
2022-09-27T08:12:28.515Z,3.47
2022-09-27T08:14:58.532Z,3.42
2022-09-27T08:17:26.274Z,3.20
2022-09-27T08:19:53.905Z,3.92
2022-09-27T08:22:22.960Z,2.72
2022-09-27T08:24:50.989Z,2.00
2022-09-27T08:27:19.089Z,4.27
2022-09-27T08:29:47.759Z,2.40
2022-09-27T08:32:18.311Z,5.47
2022-09-27T08:34:49.950Z,3.95
2022-09-27T08:37:17.620Z,2.38
2022-09-27T08:39:48.125Z,4.72
2022-09-27T08:42:20.844Z,4.50
2022-09-27T08:44:52.048Z,3.70
2022-09-27T08:47:25.120Z,3.63
2022-09-27T08:49:55.644Z,2.92
2022-09-27T08:52:27.693Z,2.40
2022-09-27T08:54:57.279Z,5.13
2022-09-27T08:57:25.483Z,2.95
2022-09-27T08:59:59.392Z,3.50
2022-09-27T09:02:27.357Z,3.78
2022-09-27T09:04:58.079Z,3.95
2022-09-27T09:07:37.363Z,2.20
2022-09-27T09:10:41.330Z,5.85
2022-09-27T09:13:12.669Z,3.00
2022-09-27T09:15:58.446Z,2.40
2022-09-27T09:18:34.887Z,1.42
2022-09-27T09:21:08.376Z,1.30
2022-09-27T09:24:02.410Z,2.42
2022-09-27T09:26:36.666Z,2.00
2022-09-27T09:29:14.076Z,4.82
2022-09-27T09:31:44.185Z,1.63
2022-09-27T09:34:16.558Z,1.90
2022-09-27T09:36:47.636Z,1.23
2022-09-27T09:39:19.126Z,1.43
2022-09-27T09:41:57.781Z,0.93
2022-09-27T09:44:28.610Z,1.67
2022-09-27T09:46:58.415Z,1.50
2022-09-27T09:49:29.433Z,1.67
2022-09-27T09:52:01.735Z,1.63
2022-09-27T09:54:34.007Z,3.38
2022-09-27T09:57:08.995Z,2.10
2022-09-27T09:59:42.988Z,3.13
2022-09-27T10:02:23.025Z,1.55
2022-09-27T10:04:50.823Z,2.67
2022-09-27T10:07:21.794Z,3.13
2022-09-27T10:09:49.492Z,1.60
2022-09-27T10:12:18.544Z,2.45
2022-09-27T10:14:48.126Z,2.25
2022-09-27T10:17:18.081Z,1.77
2022-09-27T10:19:46.182Z,1.70
2022-09-27T10:22:16.802Z,1.80
2022-09-27T10:24:56.342Z,2.13
2022-09-27T10:27:26.561Z,1.40
2022-09-27T10:29:58.823Z,1.00
2022-09-27T10:32:31.282Z,1.88
2022-09-27T10:35:23.600Z,3.60
2022-09-27T10:37:52.559Z,2.10
2022-09-27T10:40:28.971Z,1.55
2022-09-27T10:42:58.034Z,2.70
2022-09-27T10:45:31.038Z,1.47
2022-09-27T10:47:59.435Z,2.58
2022-09-27T10:53:18.777Z,2.47
2022-09-27T10:55:48.951Z,1.80
2022-09-27T10:58:21.037Z,1.13
2022-09-27T11:00:56.456Z,0.47
2022-09-27T11:03:25.486Z,2.85
2022-09-27T11:05:54.706Z,0.77
2022-09-27T11:08:27.439Z,0.63
2022-09-27T11:11:07.615Z,1.60
2022-09-27T11:13:36.701Z,0.77
2022-09-27T11:16:21.086Z,1.05
2022-09-27T11:18:55.139Z,1.25
2022-09-27T11:21:31.746Z,1.87
2022-09-27T11:24:09.405Z,0.80
2022-09-27T11:26:45.915Z,0.80
2022-09-27T11:29:25.651Z,1.25
2022-09-27T11:32:04.817Z,2.00
2022-09-27T11:34:44.596Z,2.10
2022-09-27T11:37:21.124Z,0.90
2022-09-27T11:39:58.211Z,1.10
2022-09-27T11:42:43.855Z,0.73
2022-09-27T11:45:41.208Z,1.67
2022-09-27T11:48:24.457Z,1.50
2022-09-27T11:50:58.755Z,2.15
2022-09-27T11:53:35.675Z,3.30
2022-09-27T11:56:08.386Z,1.67
2022-09-27T11:58:43.657Z,1.17
2022-09-27T12:01:23.933Z,1.95
2022-09-27T12:04:09.170Z,1.58
2022-09-27T12:06:44.467Z,4.82
2022-09-27T12:09:14.803Z,10.82
2022-09-27T12:11:46.023Z,4.30
2022-09-27T12:14:21.629Z,5.82
2022-09-27T12:16:55.185Z,5.15
2022-09-27T12:19:25.678Z,2.90
2022-09-27T12:21:53.327Z,1.77
2022-09-27T12:24:23.155Z,1.75
2022-09-27T12:26:53.009Z,2.53
2022-09-27T12:29:23.540Z,1.67
2022-09-27T12:31:58.736Z,1.40
2022-09-27T12:34:31.497Z,0.88
2022-09-27T12:37:04.581Z,3.35
2022-09-27T12:39:42.554Z,1.10
2022-09-27T12:42:16.119Z,1.00
2022-09-27T12:44:47.536Z,1.05
2022-09-27T12:47:33.321Z,1.50
2022-09-27T12:50:05.212Z,1.08
2022-09-27T12:52:35.402Z,0.73
2022-09-27T12:55:26.327Z,2.78
2022-09-27T12:58:08.641Z,1.50
2022-09-27T13:00:38.327Z,0.70
2022-09-27T13:03:39.187Z,2.25
2022-09-27T13:06:27.431Z,2.15
2022-09-27T13:09:17.708Z,1.65
2022-09-27T13:11:49.479Z,1.08
2022-09-27T13:14:19.686Z,2.33
2022-09-27T13:16:48.157Z,1.40
2022-09-27T13:19:40.300Z,1.67
2022-09-27T13:22:09.131Z,0.80
2022-09-27T13:24:48.242Z,1.45
2022-09-27T13:27:38.484Z,1.17
2022-09-27T13:30:48.703Z,0.68
2022-09-27T13:33:44.397Z,1.15
2022-09-27T13:36:30.380Z,0.57
2022-09-27T13:39:26.642Z,2.00
2022-09-27T13:42:09.118Z,1.70
2022-09-27T13:44:47.150Z,0.70
2022-09-27T13:47:26.394Z,2.23
2022-09-27T13:49:58.347Z,0.87
2022-09-27T13:52:33.811Z,0.80
2022-09-27T13:55:02.965Z,3.60
2022-09-27T13:57:44.171Z,1.80
2022-09-27T14:00:14.597Z,1.15
2022-09-27T14:02:51.311Z,1.52
2022-09-27T14:05:23.034Z,0.80
2022-09-27T14:07:53.301Z,1.67
2022-09-27T14:10:24.179Z,1.30
2022-09-27T14:12:53.539Z,1.92
2022-09-27T14:16:08.671Z,0.90
2022-09-27T14:18:37.662Z,1.40
2022-09-27T14:21:16.010Z,1.13
2022-09-27T14:23:43.755Z,3.10
2022-09-27T14:26:23.490Z,1.45
2022-09-27T14:28:51.143Z,0.60
2022-09-27T14:31:22.989Z,1.15
2022-09-27T14:33:52.277Z,0.40
2022-09-27T14:36:44.938Z,1.67
2022-09-27T14:39:17.121Z,1.10
2022-09-27T14:41:45.300Z,0.80
2022-09-27T14:44:17.779Z,1.00
2022-09-27T14:46:47.935Z,0.70
2022-09-27T14:49:25.894Z,1.40
2022-09-27T14:51:54.489Z,0.82
2022-09-27T14:54:25.276Z,0.82
2022-09-27T14:56:54.521Z,0.80
2022-09-27T14:59:30.667Z,1.48
2022-09-27T15:02:01.758Z,0.65
2022-09-27T15:04:32.016Z,1.40
2022-09-27T15:07:01.756Z,1.23
2022-09-27T15:09:32.967Z,1.30
2022-09-27T15:12:04.868Z,0.77
2022-09-27T15:14:33.766Z,0.88
2022-09-27T15:17:06.182Z,0.60
2022-09-27T15:19:34.440Z,1.52
2022-09-27T15:22:23.402Z,1.20
2022-09-27T15:24:52.078Z,1.33
2022-09-27T15:27:22.600Z,1.95
2022-09-27T15:29:51.454Z,0.70
2022-09-27T15:32:22.814Z,1.40
2022-09-27T15:34:50.924Z,1.50
2022-09-27T15:37:29.115Z,1.17
2022-09-27T15:39:57.150Z,1.70
2022-09-27T15:42:24.837Z,2.80
2022-09-27T15:44:54.119Z,3.20
2022-09-27T15:47:42.339Z,1.48
2022-09-27T15:50:38.064Z,1.08
2022-09-27T15:53:06.991Z,3.28
2022-09-27T15:55:37.706Z,1.83
2022-09-27T15:58:08.199Z,1.23
2022-09-27T16:00:36.914Z,1.40
2022-09-27T16:03:06.133Z,1.88
2022-09-27T16:05:33.857Z,1.52
2022-09-27T16:08:01.968Z,1.60
2022-09-27T16:10:33.092Z,1.00
2022-09-27T16:13:00.745Z,1.70
2022-09-27T16:15:28.379Z,0.90
2022-09-27T16:17:57.686Z,1.05
2022-09-27T16:20:28.045Z,1.20
2022-09-27T16:22:56.505Z,0.98
2022-09-27T16:25:24.391Z,0.68
2022-09-27T16:27:52.404Z,1.45
2022-09-27T16:30:21.081Z,2.40
2022-09-27T16:32:50.009Z,3.00
2022-09-27T16:35:19.606Z,1.27
2022-09-27T16:39:47.861Z,0.28
2022-09-27T16:42:15.996Z,0.80
2022-09-27T16:44:43.718Z,0.82
2022-09-27T16:47:11.399Z,0.60
2022-09-27T16:49:56.470Z,1.98
2022-09-27T16:52:24.117Z,0.93
2022-09-27T16:54:53.165Z,1.45
2022-09-27T16:57:20.874Z,0.75
2022-09-27T16:59:48.912Z,1.50
2022-09-27T17:02:18.006Z,1.48
2022-09-27T17:04:45.705Z,3.42
2022-09-27T17:07:13.488Z,0.82
2022-09-27T17:09:41.166Z,1.50
2022-09-27T17:12:12.036Z,2.28
2022-09-27T17:14:39.943Z,1.15
2022-09-27T17:17:08.296Z,3.85
2022-09-27T17:19:39.074Z,0.90
2022-09-27T17:22:08.517Z,1.02
2022-09-27T17:24:36.571Z,6.63
2022-09-27T17:27:04.327Z,3.17
2022-09-27T17:29:33.610Z,3.28
2022-09-27T17:32:01.604Z,4.13
2022-09-27T17:34:29.275Z,3.30
2022-09-27T17:36:57.138Z,1.33
2022-09-27T17:39:24.767Z,2.05
2022-09-27T17:41:52.545Z,2.25
2022-09-27T17:44:20.334Z,1.80
2022-09-27T17:47:09.710Z,2.22
2022-09-27T17:49:54.692Z,0.90
2022-09-27T17:52:23.452Z,2.45
2022-09-27T17:54:51.750Z,1.95
2022-09-27T17:57:19.429Z,2.17
2022-09-27T17:59:47.155Z,3.10
2022-09-27T18:02:16.410Z,1.23
2022-09-27T18:04:44.195Z,2.05
2022-09-27T18:07:13.063Z,2.33
2022-09-27T18:09:40.798Z,1.90
2022-09-27T18:12:08.565Z,1.00
2022-09-27T18:14:36.585Z,1.85
2022-09-27T18:17:04.324Z,2.10
2022-09-27T18:19:33.626Z,2.30
2022-09-27T18:22:01.890Z,1.10
2022-09-27T18:24:29.529Z,4.68
2022-09-27T18:26:59.866Z,3.85
2022-09-27T18:29:28.685Z,4.63
2022-09-27T18:31:56.405Z,4.45
2022-09-27T18:34:24.454Z,9.80
2022-09-27T18:36:53.561Z,23.63
2022-09-27T18:39:21.501Z,11.15
2022-09-27T18:41:49.577Z,6.82
2022-09-27T18:44:18.141Z,7.90
2022-09-27T18:46:46.450Z,9.05
2022-09-27T18:49:15.372Z,4.05
2022-09-27T18:51:46.054Z,3.47
2022-09-27T18:54:17.254Z,3.13
2022-09-27T18:56:45.307Z,5.70
2022-09-27T18:59:13.258Z,6.75
2022-09-27T19:01:44.832Z,5.18
2022-09-27T19:04:15.043Z,7.72
2022-09-27T19:06:42.835Z,17.17
2022-09-27T19:09:12.385Z,15.60
2022-09-27T19:11:41.501Z,16.17
2022-09-27T19:14:09.194Z,7.82
2022-09-27T19:16:36.884Z,14.65
2022-09-27T19:19:04.478Z,15.43
2022-09-27T19:21:32.119Z,8.45
2022-09-27T19:23:59.830Z,12.77
2022-09-27T19:26:28.281Z,9.25
2022-09-27T19:28:58.794Z,10.57
2022-09-27T19:31:29.314Z,10.02
2022-09-27T19:34:00.193Z,7.55
2022-09-27T19:36:29.122Z,4.72
2022-09-27T19:38:58.623Z,3.90
2022-09-27T19:41:26.893Z,7.90
2022-09-27T19:43:55.461Z,5.30
2022-09-27T19:46:25.999Z,6.18
2022-09-27T19:48:55.095Z,4.32
2022-09-27T19:51:23.877Z,7.13
2022-09-27T19:53:52.351Z,4.90
2022-09-27T19:56:20.629Z,4.80
2022-09-27T19:58:48.522Z,3.50
2022-09-27T20:01:19.225Z,3.72
2022-09-27T20:03:49.325Z,3.22
2022-09-27T20:06:18.867Z,4.10
2022-09-27T20:08:47.825Z,6.13
2022-09-27T20:11:17.445Z,3.58
2022-09-27T20:13:45.248Z,3.42
2022-09-27T20:16:14.411Z,6.05
2022-09-27T20:18:43.321Z,4.88
2022-09-27T20:21:12.861Z,5.03
2022-09-27T20:23:41.048Z,5.90
2022-09-27T20:26:10.186Z,5.05
2022-09-27T20:28:41.925Z,6.57
2022-09-27T20:31:09.845Z,5.80
2022-09-27T20:33:44.099Z,4.53
2022-09-27T20:36:14.542Z,4.75
2022-09-27T20:38:43.306Z,5.85
2022-09-27T20:41:11.585Z,5.40
2022-09-27T20:43:39.394Z,7.10
2022-09-27T20:46:08.816Z,5.28
2022-09-27T20:48:38.201Z,4.70
2022-09-27T20:51:06.540Z,6.05
2022-09-27T20:53:35.755Z,4.50
2022-09-27T20:56:03.752Z,5.28
2022-09-27T20:58:32.510Z,5.20
2022-09-27T21:01:07.489Z,6.85
2022-09-27T21:03:35.513Z,5.18
2022-09-27T21:06:04.569Z,5.28
2022-09-27T21:08:34.264Z,4.72
2022-09-27T21:11:08.546Z,5.18
2022-09-27T21:13:36.909Z,5.30
2022-09-27T21:16:05.817Z,4.40
2022-09-27T21:18:33.906Z,8.07
2022-09-27T21:21:02.901Z,6.30
2022-09-27T21:23:31.140Z,4.75
2022-09-27T21:26:03.271Z,5.40
2022-09-27T21:28:37.386Z,5.75
2022-09-27T21:31:07.035Z,7.78
2022-09-27T21:33:34.898Z,6.32
2022-09-27T21:36:03.274Z,6.72
2022-09-27T21:38:31.519Z,6.35
2022-09-27T21:41:00.182Z,8.00
2022-09-27T21:43:28.657Z,7.90
2022-09-27T21:46:03.821Z,10.73
2022-09-27T21:48:31.591Z,7.65
2022-09-27T21:51:07.251Z,8.85
2022-09-27T21:53:35.455Z,7.30
2022-09-27T21:56:03.789Z,6.38
2022-09-27T21:58:34.040Z,7.53
2022-09-27T22:01:09.452Z,6.07
2022-09-27T22:03:37.561Z,5.93
2022-09-27T22:06:06.481Z,5.82
2022-09-27T22:08:34.124Z,5.97
2022-09-27T22:11:01.852Z,7.07
2022-09-27T22:13:29.634Z,7.13
2022-09-27T22:15:57.524Z,6.47
2022-09-27T22:18:26.988Z,7.28
2022-09-27T22:20:54.654Z,7.93
2022-09-27T22:23:22.388Z,8.20
2022-09-27T22:25:50.052Z,8.50
2022-09-27T22:28:17.807Z,6.72
2022-09-27T22:30:45.493Z,6.30
2022-09-27T22:33:13.445Z,7.20
2022-09-27T22:35:47.799Z,5.95
2022-09-27T22:38:16.038Z,7.03
2022-09-27T22:40:43.823Z,7.45
2022-09-27T22:43:12.124Z,6.07
2022-09-27T22:45:40.232Z,6.63
2022-09-27T22:48:07.974Z,6.18
2022-09-27T22:50:36.177Z,7.15
2022-09-27T22:53:05.240Z,6.70
2022-09-27T22:55:32.853Z,7.65
2022-09-27T22:58:00.577Z,7.70
2022-09-27T23:00:28.355Z,7.90
2022-09-27T23:02:56.452Z,7.85
2022-09-27T23:05:24.765Z,9.88
2022-09-27T23:07:53.142Z,6.88
2022-09-27T23:10:23.385Z,8.32
2022-09-27T23:12:54.567Z,7.50
2022-09-27T23:15:22.503Z,7.47
2022-09-27T23:17:50.996Z,8.15
2022-09-27T23:20:18.767Z,8.65
2022-09-27T23:22:46.557Z,9.60
2022-09-27T23:25:14.483Z,9.57
2022-09-27T23:27:45.179Z,8.27
2022-09-27T23:30:14.077Z,9.50
2022-09-27T23:32:44.692Z,7.85
2022-09-27T23:35:12.533Z,8.55
2022-09-27T23:37:40.344Z,8.90
2022-09-27T23:40:09.558Z,7.72
2022-09-27T23:42:37.629Z,15.75
2022-09-27T23:45:07.671Z,7.70
2022-09-27T23:47:35.370Z,7.30
2022-09-27T23:50:03.098Z,8.02
2022-09-27T23:52:30.751Z,8.15
2022-09-27T23:54:58.462Z,7.80
2022-09-27T23:57:26.129Z,8.48
2022-09-27T23:59:53.870Z,7.95
